createdAt,value
2023-02-23T00:00:34.030Z,12.98
2023-02-23T00:03:04.762Z,15.55
2023-02-23T00:05:38.275Z,13.77
2023-02-23T00:08:07.927Z,14.03
2023-02-23T00:10:36.891Z,15.55
2023-02-23T00:13:06.223Z,16.83
2023-02-23T00:15:35.098Z,15.20
2023-02-23T00:18:05.684Z,15.77
2023-02-23T00:20:34.597Z,14.13
2023-02-23T00:23:03.436Z,13.15
2023-02-23T00:25:32.325Z,10.40
2023-02-23T00:28:01.196Z,10.15
2023-02-23T00:30:31.229Z,12.15
2023-02-23T00:33:00.140Z,13.00
2023-02-23T00:35:29.011Z,11.73
2023-02-23T00:37:57.887Z,9.80
2023-02-23T00:40:26.816Z,10.00
2023-02-23T00:42:56.562Z,14.48
2023-02-23T00:45:25.818Z,14.32
2023-02-23T00:47:54.946Z,13.63
2023-02-23T00:50:24.345Z,10.68
2023-02-23T00:52:53.226Z,11.90
2023-02-23T00:55:22.098Z,10.98
2023-02-23T00:57:51.043Z,10.05
2023-02-23T01:00:21.320Z,10.05
2023-02-23T01:02:50.781Z,11.45
2023-02-23T01:05:21.513Z,11.70
2023-02-23T01:07:50.495Z,9.73
2023-02-23T01:10:22.141Z,9.25
2023-02-23T01:12:52.887Z,10.15
2023-02-23T01:15:22.698Z,9.48
2023-02-23T01:17:51.784Z,9.43
2023-02-23T01:20:20.753Z,22.30
2023-02-23T01:22:53.743Z,12.13
2023-02-23T01:25:22.860Z,12.02
2023-02-23T01:27:51.810Z,10.88
2023-02-23T01:30:20.763Z,10.13
2023-02-23T01:32:49.813Z,16.38
2023-02-23T01:35:18.718Z,14.80
2023-02-23T01:37:47.618Z,9.40
2023-02-23T01:40:31.915Z,9.82
2023-02-23T01:43:12.935Z,9.55
2023-02-23T01:45:44.025Z,9.23
2023-02-23T01:48:25.602Z,9.10
2023-02-23T01:51:02.975Z,10.50
2023-02-23T01:53:36.953Z,10.35
2023-02-23T01:56:12.803Z,9.50
2023-02-23T01:58:46.585Z,10.35
2023-02-23T02:01:16.623Z,12.05
2023-02-23T02:04:01.635Z,10.75
2023-02-23T02:06:31.653Z,12.10
2023-02-23T02:09:08.597Z,12.68
2023-02-23T02:11:40.319Z,10.75
2023-02-23T02:14:16.662Z,11.98
2023-02-23T02:17:07.822Z,11.25
2023-02-23T02:19:55.512Z,11.07
2023-02-23T02:22:43.462Z,12.07
2023-02-23T02:25:18.680Z,11.68
2023-02-23T02:27:51.159Z,11.68
2023-02-23T02:30:54.516Z,11.05
2023-02-23T02:33:23.586Z,11.05
2023-02-23T02:36:09.350Z,11.75
2023-02-23T02:39:08.462Z,11.70
2023-02-23T02:41:54.691Z,11.80
2023-02-23T02:44:52.160Z,12.38
2023-02-23T02:47:35.926Z,12.63
2023-02-23T02:50:21.043Z,12.27
2023-02-23T02:52:56.761Z,11.57
2023-02-23T02:55:36.355Z,12.75
2023-02-23T02:58:12.465Z,11.93
2023-02-23T03:01:02.596Z,13.05
2023-02-23T03:04:02.765Z,12.32
2023-02-23T03:06:54.447Z,10.98
2023-02-23T03:09:41.724Z,11.88
2023-02-23T03:12:46.239Z,12.98
2023-02-23T03:15:33.439Z,10.98
2023-02-23T03:18:38.737Z,11.07
2023-02-23T03:21:42.652Z,16.70
2023-02-23T03:24:57.561Z,11.05
2023-02-23T03:28:13.360Z,11.35
2023-02-23T03:31:27.000Z,11.32
2023-02-23T03:34:43.046Z,11.05
2023-02-23T03:37:40.547Z,13.98
2023-02-23T03:40:41.608Z,10.35
2023-02-23T03:43:34.855Z,11.32
2023-02-23T03:46:24.552Z,10.38
2023-02-23T03:49:14.010Z,10.18
2023-02-23T03:52:05.544Z,10.32
2023-02-23T03:55:05.438Z,10.25
2023-02-23T03:57:56.192Z,9.32
2023-02-23T04:00:49.949Z,15.10
2023-02-23T04:03:39.344Z,12.82
2023-02-23T04:06:30.872Z,9.93
2023-02-23T04:09:22.526Z,10.65
2023-02-23T04:12:24.456Z,10.50
2023-02-23T04:15:10.030Z,9.55
2023-02-23T04:17:39.064Z,10.48
2023-02-23T04:20:08.883Z,11.00
2023-02-23T04:22:37.748Z,10.65
2023-02-23T04:25:10.163Z,10.63
2023-02-23T04:27:39.239Z,10.73
2023-02-23T04:30:09.152Z,10.93
2023-02-23T04:32:38.403Z,11.05
2023-02-23T04:35:07.936Z,11.70
2023-02-23T04:37:37.106Z,11.50
2023-02-23T04:40:06.858Z,11.85
2023-02-23T04:42:35.713Z,10.70
2023-02-23T04:45:04.649Z,12.48
2023-02-23T04:47:33.767Z,10.10
2023-02-23T04:50:02.756Z,12.15
2023-02-23T04:52:32.550Z,10.40
2023-02-23T04:55:01.401Z,10.60
2023-02-23T04:57:30.313Z,10.45
2023-02-23T04:59:59.492Z,10.85
2023-02-23T05:02:28.685Z,9.88
2023-02-23T05:04:57.657Z,9.70
2023-02-23T05:07:27.246Z,10.00
2023-02-23T05:09:56.124Z,9.52
2023-02-23T05:12:24.997Z,10.05
2023-02-23T05:14:53.964Z,11.18
2023-02-23T05:17:22.965Z,10.93
2023-02-23T05:19:52.901Z,12.45
2023-02-23T05:22:22.097Z,10.38
2023-02-23T05:24:51.381Z,10.80
2023-02-23T05:27:20.457Z,10.45
2023-02-23T05:29:49.500Z,10.32
2023-02-23T05:32:18.682Z,9.85
2023-02-23T05:34:47.588Z,10.63
2023-02-23T05:37:16.455Z,9.20
2023-02-23T05:39:45.305Z,10.50
2023-02-23T05:42:14.269Z,10.77
2023-02-23T05:44:43.242Z,9.55
2023-02-23T05:47:12.243Z,10.48
2023-02-23T05:49:41.207Z,10.35
2023-02-23T05:52:10.387Z,10.43
2023-02-23T05:54:39.306Z,9.63
2023-02-23T05:57:09.396Z,10.05
2023-02-23T05:59:38.408Z,10.65
2023-02-23T06:02:07.293Z,9.98
2023-02-23T06:04:36.184Z,10.77
2023-02-23T06:07:05.119Z,10.55
2023-02-23T06:09:34.064Z,10.05
2023-02-23T06:12:02.967Z,10.40
2023-02-23T06:14:31.841Z,8.68
2023-02-23T06:17:01.437Z,9.77
2023-02-23T06:19:30.714Z,16.20
2023-02-23T06:21:59.908Z,8.98
2023-02-23T06:24:28.842Z,10.52
2023-02-23T06:26:57.900Z,9.80
2023-02-23T06:29:26.984Z,11.18
2023-02-23T06:31:56.327Z,9.93
2023-02-23T06:34:26.003Z,10.27
2023-02-23T06:36:54.913Z,10.73
2023-02-23T06:39:23.851Z,10.23
2023-02-23T06:41:52.778Z,10.55
2023-02-23T06:44:21.682Z,13.52
2023-02-23T06:46:50.615Z,11.48
2023-02-23T06:49:19.588Z,11.23
2023-02-23T06:51:48.650Z,10.55
2023-02-23T06:54:17.500Z,11.50
2023-02-23T06:56:46.435Z,11.00
2023-02-23T06:59:15.265Z,10.10
2023-02-23T07:01:45.873Z,11.57
2023-02-23T07:04:16.781Z,10.25
2023-02-23T07:06:45.977Z,10.32
2023-02-23T07:09:16.389Z,10.27
2023-02-23T07:11:48.170Z,10.55
2023-02-23T07:14:26.064Z,10.52
2023-02-23T07:16:56.327Z,10.73
2023-02-23T07:19:25.223Z,11.07
2023-02-23T07:21:54.803Z,10.23
2023-02-23T07:24:24.036Z,11.00
2023-02-23T07:26:53.262Z,10.95
2023-02-23T07:29:22.445Z,11.23
2023-02-23T07:31:54.640Z,11.65
2023-02-23T07:34:26.716Z,10.23
2023-02-23T07:36:55.653Z,10.73
2023-02-23T07:39:24.843Z,10.88
2023-02-23T07:41:53.970Z,11.13
2023-02-23T07:44:22.982Z,10.60
2023-02-23T07:46:53.939Z,10.82
2023-02-23T07:49:22.825Z,10.65
2023-02-23T07:51:51.804Z,10.63
2023-02-23T07:54:20.886Z,11.82
2023-02-23T07:56:49.823Z,11.95
2023-02-23T07:59:18.781Z,11.13
2023-02-23T08:01:48.047Z,10.05
2023-02-23T08:04:16.993Z,10.70
2023-02-23T08:06:45.985Z,9.60
2023-02-23T08:09:14.859Z,10.13
2023-02-23T08:11:46.873Z,10.35
2023-02-23T08:14:18.912Z,10.80
2023-02-23T08:16:48.712Z,10.98
2023-02-23T08:19:18.963Z,10.38
2023-02-23T08:21:47.924Z,11.13
2023-02-23T08:24:17.217Z,10.25
2023-02-23T08:26:46.096Z,11.65
2023-02-23T08:29:15.078Z,11.55
2023-02-23T08:31:46.746Z,11.00
2023-02-23T08:34:17.638Z,10.88
2023-02-23T08:36:49.442Z,10.73
2023-02-23T08:39:18.566Z,10.80
2023-02-23T08:41:47.442Z,11.57
2023-02-23T08:44:16.563Z,10.32
2023-02-23T08:46:46.545Z,9.98
2023-02-23T08:49:17.258Z,10.25
2023-02-23T08:51:48.003Z,10.82
2023-02-23T08:54:18.863Z,10.40
2023-02-23T08:56:47.933Z,10.25
2023-02-23T08:59:17.297Z,10.77
2023-02-23T09:01:46.223Z,11.68
2023-02-23T09:04:15.513Z,12.20
2023-02-23T09:06:44.670Z,11.57
2023-02-23T09:09:13.657Z,11.80
2023-02-23T09:11:42.618Z,10.15
2023-02-23T09:14:11.582Z,11.68
2023-02-23T09:16:40.556Z,11.48
2023-02-23T09:19:09.502Z,11.65
2023-02-23T09:21:38.470Z,11.07
2023-02-23T09:24:07.736Z,12.45
2023-02-23T09:26:36.906Z,12.07
2023-02-23T09:29:05.786Z,10.40
2023-02-23T09:31:35.490Z,11.95
2023-02-23T09:34:04.555Z,11.32
2023-02-23T09:36:33.908Z,10.20
2023-02-23T09:39:04.014Z,11.30
2023-02-23T09:42:09.244Z,12.55
2023-02-23T09:45:05.673Z,11.15
2023-02-23T09:48:02.464Z,11.63
2023-02-23T09:50:33.031Z,12.07
2023-02-23T09:53:08.120Z,11.10
2023-02-23T09:55:38.751Z,11.57
2023-02-23T09:58:19.442Z,11.10
2023-02-23T10:01:07.519Z,10.98
2023-02-23T10:03:41.844Z,11.15
2023-02-23T10:06:15.895Z,11.23
2023-02-23T10:08:51.008Z,11.20
2023-02-23T10:11:26.104Z,12.07
2023-02-23T10:14:25.389Z,11.15
2023-02-23T10:17:09.902Z,11.57
2023-02-23T10:20:02.821Z,11.82
2023-02-23T10:22:33.699Z,11.18
2023-02-23T10:25:07.898Z,11.85
2023-02-23T10:27:47.164Z,11.80
2023-02-23T10:30:24.251Z,10.98
2023-02-23T10:33:08.962Z,11.23
2023-02-23T10:35:40.622Z,10.75
2023-02-23T10:38:16.103Z,10.98
2023-02-23T10:40:48.091Z,11.68
2023-02-23T10:43:17.187Z,12.63
2023-02-23T10:45:54.689Z,11.48
2023-02-23T10:48:33.358Z,10.45
2023-02-23T10:51:07.100Z,11.18
2023-02-23T10:56:11.973Z,11.23
2023-02-23T10:58:52.261Z,14.10
2023-02-23T11:01:38.906Z,11.82
2023-02-23T11:04:32.354Z,12.60
2023-02-23T11:07:40.457Z,12.73
2023-02-23T11:10:29.236Z,11.80
2023-02-23T11:12:58.114Z,12.18
2023-02-23T11:15:46.299Z,11.70
2023-02-23T11:18:27.554Z,13.10
2023-02-23T11:20:57.896Z,12.63
2023-02-23T11:23:37.290Z,12.90
2023-02-23T11:26:23.950Z,12.68
2023-02-23T11:29:01.547Z,12.25
2023-02-23T11:31:35.789Z,12.43
2023-02-23T11:34:07.022Z,13.27
2023-02-23T11:36:39.572Z,12.80
2023-02-23T11:39:17.482Z,12.27
2023-02-23T11:41:46.545Z,12.60
2023-02-23T11:44:26.928Z,13.98
2023-02-23T11:46:56.016Z,13.82
2023-02-23T11:49:37.396Z,15.63
2023-02-23T11:52:17.849Z,18.23
2023-02-23T11:55:08.550Z,18.48
2023-02-23T11:57:38.267Z,21.33
2023-02-23T12:00:23.544Z,17.25
2023-02-23T12:03:00.235Z,17.50
2023-02-23T12:05:33.658Z,15.73
2023-02-23T12:08:28.752Z,18.08
2023-02-23T12:11:02.246Z,24.85
2023-02-23T12:13:50.804Z,29.75
2023-02-23T12:16:43.163Z,30.55
2023-02-23T12:19:30.130Z,29.33
2023-02-23T12:22:16.939Z,26.58
2023-02-23T12:24:55.484Z,22.50
2023-02-23T12:27:44.556Z,18.10
2023-02-23T12:30:48.751Z,20.58
2023-02-23T12:33:41.141Z,18.13
2023-02-23T12:36:39.969Z,18.67
2023-02-23T12:39:36.948Z,22.88
2023-02-23T12:42:44.258Z,26.13
2023-02-23T12:45:32.296Z,24.75
2023-02-23T12:48:29.184Z,24.20
2023-02-23T12:51:03.221Z,17.52
2023-02-23T12:53:46.430Z,18.13
2023-02-23T12:56:30.807Z,18.15
2023-02-23T12:59:24.061Z,18.92
2023-02-23T13:02:04.570Z,17.33
2023-02-23T13:04:48.913Z,17.40
2023-02-23T13:07:23.985Z,17.38
2023-02-23T13:10:04.512Z,19.25
2023-02-23T13:12:56.375Z,17.88
2023-02-23T13:15:43.784Z,19.88
2023-02-23T13:18:24.840Z,19.65
2023-02-23T13:20:55.712Z,24.20
2023-02-23T13:23:33.821Z,22.85
2023-02-23T13:26:28.937Z,24.25
2023-02-23T13:29:16.332Z,20.50
2023-02-23T13:31:46.371Z,23.83
2023-02-23T13:34:27.343Z,21.42
2023-02-23T13:36:58.098Z,22.90
2023-02-23T13:39:42.234Z,22.98
2023-02-23T13:42:21.826Z,24.55
2023-02-23T13:45:00.901Z,27.45
2023-02-23T13:47:54.670Z,29.67
2023-02-23T13:50:42.021Z,31.63
2023-02-23T13:53:29.486Z,31.20
2023-02-23T13:56:04.161Z,26.13
2023-02-23T13:58:33.839Z,31.58
2023-02-23T14:01:28.329Z,30.73
2023-02-23T14:06:35.725Z,27.20
2023-02-23T14:09:14.448Z,28.60
2023-02-23T14:11:50.625Z,26.25
2023-02-23T14:14:34.739Z,27.63
2023-02-23T14:17:20.253Z,30.45
2023-02-23T14:20:11.360Z,23.40
2023-02-23T14:23:18.613Z,24.58
2023-02-23T14:25:54.318Z,29.08
2023-02-23T14:28:33.753Z,30.48
2023-02-23T14:31:15.402Z,24.42
2023-02-23T14:33:46.335Z,32.30
2023-02-23T14:36:30.297Z,32.53
2023-02-23T14:39:02.168Z,29.25
2023-02-23T14:41:46.482Z,32.45
2023-02-23T14:47:09.679Z,33.17
2023-02-23T14:49:44.648Z,32.90
2023-02-23T14:52:20.855Z,33.67
2023-02-23T14:54:50.014Z,26.52
2023-02-23T14:57:25.313Z,27.25
2023-02-23T15:00:08.514Z,26.23
2023-02-23T15:02:45.848Z,26.80
2023-02-23T15:05:19.057Z,32.45
2023-02-23T15:07:50.666Z,30.38
2023-02-23T15:10:34.660Z,30.17
2023-02-23T15:13:15.982Z,30.00
2023-02-23T15:15:47.220Z,28.83
2023-02-23T15:18:32.463Z,29.73
2023-02-23T15:21:02.337Z,28.42
2023-02-23T15:23:38.811Z,28.10
2023-02-23T15:26:35.127Z,27.02
2023-02-23T15:29:15.961Z,28.85
2023-02-23T15:31:56.420Z,27.20
2023-02-23T15:34:28.839Z,27.52
2023-02-23T15:37:07.587Z,27.65
2023-02-23T15:39:54.049Z,26.90
2023-02-23T15:42:30.404Z,28.33
2023-02-23T15:45:03.293Z,29.83
2023-02-23T15:47:38.607Z,28.30
2023-02-23T15:50:36.604Z,28.60
2023-02-23T15:53:21.380Z,29.40
2023-02-23T15:55:50.516Z,32.20
2023-02-23T15:58:31.829Z,32.40
2023-02-23T16:01:07.141Z,33.65
2023-02-23T16:03:39.137Z,28.52
2023-02-23T16:06:18.920Z,27.67
2023-02-23T16:09:07.032Z,27.50
2023-02-23T16:11:38.192Z,27.40
2023-02-23T16:14:14.319Z,28.58
2023-02-23T16:16:44.357Z,29.40
2023-02-23T16:19:16.699Z,28.73
2023-02-23T16:21:54.911Z,27.27
2023-02-23T16:24:28.560Z,28.88
2023-02-23T16:27:05.753Z,29.63
2023-02-23T16:29:42.513Z,28.33
2023-02-23T16:32:24.922Z,27.85
2023-02-23T16:35:01.483Z,27.75
2023-02-23T16:37:30.366Z,28.33
2023-02-23T16:39:59.290Z,28.52
2023-02-23T16:42:35.010Z,27.40
2023-02-23T16:45:04.301Z,28.80
2023-02-23T16:47:40.400Z,29.80
2023-02-23T16:50:27.507Z,29.90
2023-02-23T16:52:56.741Z,26.70
2023-02-23T16:55:28.500Z,29.13
2023-02-23T16:58:03.081Z,28.20
2023-02-23T17:00:34.423Z,28.95
2023-02-23T17:03:06.704Z,27.95
2023-02-23T17:05:35.668Z,28.77
2023-02-23T17:08:04.550Z,28.55
2023-02-23T17:10:36.071Z,28.60
2023-02-23T17:13:08.381Z,28.30
2023-02-23T17:15:43.013Z,28.17
2023-02-23T17:18:11.906Z,27.95
2023-02-23T17:20:41.190Z,29.65
2023-02-23T17:23:10.289Z,27.63
2023-02-23T17:25:39.336Z,27.48
2023-02-23T17:28:08.277Z,28.42
2023-02-23T17:30:40.374Z,27.10
2023-02-23T17:33:09.502Z,27.77
2023-02-23T17:35:38.713Z,28.00
2023-02-23T17:38:09.254Z,29.33
2023-02-23T17:40:38.937Z,28.33
2023-02-23T17:43:08.817Z,28.13
2023-02-23T17:45:38.451Z,29.77
2023-02-23T17:48:07.539Z,30.15
2023-02-23T17:50:36.427Z,28.30
2023-02-23T17:53:05.635Z,28.38
2023-02-23T17:55:34.490Z,30.58
2023-02-23T17:58:03.382Z,31.08
2023-02-23T18:00:36.609Z,31.83
2023-02-23T18:03:05.692Z,31.30
2023-02-23T18:05:34.593Z,32.75
2023-02-23T18:08:03.496Z,33.80
2023-02-23T18:10:32.404Z,32.40
2023-02-23T18:13:01.286Z,33.35
2023-02-23T18:15:30.372Z,32.08
2023-02-23T18:17:59.864Z,34.38
2023-02-23T18:20:30.372Z,36.33
2023-02-23T18:22:59.291Z,35.95
2023-02-23T18:25:30.639Z,35.78
2023-02-23T18:28:00.261Z,35.25
2023-02-23T18:30:29.204Z,34.70
2023-02-23T18:33:01.603Z,36.03
2023-02-23T18:35:34.135Z,34.05
2023-02-23T18:38:04.338Z,36.38
2023-02-23T18:40:33.927Z,34.22
2023-02-23T18:43:03.991Z,35.17
2023-02-23T18:45:33.237Z,33.38
2023-02-23T18:48:02.497Z,35.83
2023-02-23T18:50:31.490Z,37.00
2023-02-23T18:53:06.118Z,34.75
2023-02-23T18:55:37.480Z,32.15
2023-02-23T18:58:06.872Z,34.50
2023-02-23T19:00:41.312Z,33.90
2023-02-23T19:03:13.904Z,32.75
2023-02-23T19:05:51.147Z,40.95
2023-02-23T19:08:20.702Z,34.63
2023-02-23T19:10:50.773Z,34.38
2023-02-23T19:13:23.103Z,37.58
2023-02-23T19:15:54.411Z,34.45
2023-02-23T19:18:24.012Z,35.60
2023-02-23T19:20:53.505Z,33.05
2023-02-23T19:23:22.692Z,35.22
2023-02-23T19:25:52.342Z,35.45
2023-02-23T19:28:22.266Z,30.30
2023-02-23T19:30:51.317Z,30.23
2023-02-23T19:33:20.548Z,37.33
2023-02-23T19:35:49.492Z,31.23
2023-02-23T19:38:18.441Z,31.48
2023-02-23T19:40:48.351Z,31.20
2023-02-23T19:43:17.370Z,31.58
2023-02-23T19:45:50.036Z,29.02
2023-02-23T19:48:19.567Z,30.48
2023-02-23T19:50:50.560Z,28.83
2023-02-23T19:53:19.833Z,30.90
2023-02-23T19:55:49.676Z,32.17
2023-02-23T19:58:18.952Z,28.90
2023-02-23T20:00:48.175Z,29.70
2023-02-23T20:03:20.949Z,29.02
2023-02-23T20:05:49.905Z,30.20
2023-02-23T20:08:20.472Z,30.35
2023-02-23T20:10:49.374Z,29.05
2023-02-23T20:13:18.942Z,28.33
2023-02-23T20:15:48.113Z,29.15
2023-02-23T20:18:17.101Z,29.35
2023-02-23T20:20:47.627Z,27.40
2023-02-23T20:23:16.618Z,28.33
2023-02-23T20:25:45.524Z,28.90
2023-02-23T20:28:14.415Z,29.60
2023-02-23T20:30:48.287Z,30.45
2023-02-23T20:33:17.534Z,28.33
2023-02-23T20:35:46.461Z,28.38
2023-02-23T20:38:16.415Z,30.02
2023-02-23T20:40:46.261Z,30.35
2023-02-23T20:43:15.328Z,30.30
2023-02-23T20:45:44.356Z,32.25
2023-02-23T20:48:13.353Z,30.20
2023-02-23T20:50:43.559Z,29.80
2023-02-23T20:53:12.667Z,30.40
2023-02-23T20:55:42.489Z,31.88
2023-02-23T20:58:11.383Z,31.02
2023-02-23T21:00:41.065Z,31.27
2023-02-23T21:03:09.958Z,31.65
2023-02-23T21:05:43.844Z,31.02
2023-02-23T21:08:12.759Z,29.40
2023-02-23T21:10:42.368Z,30.45
2023-02-23T21:13:14.187Z,31.65
2023-02-23T21:15:44.388Z,31.13
2023-02-23T21:18:13.742Z,31.08
2023-02-23T21:20:43.128Z,30.88
2023-02-23T21:23:12.047Z,31.48
2023-02-23T21:25:41.071Z,31.80
2023-02-23T21:28:09.960Z,37.65
2023-02-23T21:30:38.876Z,34.72
2023-02-23T21:33:07.886Z,35.70
2023-02-23T21:35:39.399Z,38.45
2023-02-23T21:38:09.360Z,38.95
2023-02-23T21:40:43.197Z,32.50
2023-02-23T21:43:14.043Z,30.65
2023-02-23T21:45:47.564Z,29.60
2023-02-23T21:48:16.768Z,28.90
2023-02-23T21:50:45.657Z,31.05
2023-02-23T21:53:14.617Z,30.45
2023-02-23T21:55:43.495Z,30.58
2023-02-23T21:58:13.243Z,30.58
2023-02-23T22:00:42.354Z,31.58
2023-02-23T22:03:11.307Z,31.13
2023-02-23T22:05:40.178Z,31.77
2023-02-23T22:08:09.059Z,31.63
2023-02-23T22:10:38.039Z,31.38
2023-02-23T22:13:06.887Z,31.42
2023-02-23T22:15:36.438Z,31.95
2023-02-23T22:18:05.380Z,31.58
2023-02-23T22:20:34.237Z,33.13
2023-02-23T22:23:04.163Z,30.58
2023-02-23T22:25:33.086Z,32.03
2023-02-23T22:28:03.007Z,32.05
2023-02-23T22:30:32.020Z,32.97
2023-02-23T22:33:01.041Z,31.60
2023-02-23T22:35:30.102Z,31.95
2023-02-23T22:38:01.756Z,31.10
2023-02-23T22:40:30.806Z,32.70
2023-02-23T22:43:00.393Z,31.38
2023-02-23T22:45:29.279Z,32.65
2023-02-23T22:48:02.583Z,32.85
2023-02-23T22:50:31.558Z,31.73
2023-02-23T22:53:00.477Z,32.38
2023-02-23T22:55:30.429Z,32.97
2023-02-23T22:58:01.791Z,32.92
2023-02-23T23:00:30.777Z,32.53
2023-02-23T23:02:59.688Z,33.05
2023-02-23T23:05:28.878Z,32.80
2023-02-23T23:07:57.785Z,36.58
2023-02-23T23:10:26.870Z,37.05
2023-02-23T23:12:58.187Z,36.90
2023-02-23T23:15:27.123Z,36.45
2023-02-23T23:17:56.028Z,35.85
2023-02-23T23:20:26.758Z,36.28
2023-02-23T23:22:58.330Z,44.58
2023-02-23T23:25:29.156Z,34.67
2023-02-23T23:27:58.894Z,36.33
2023-02-23T23:30:30.377Z,41.75
2023-02-23T23:33:01.258Z,33.10
2023-02-23T23:35:30.211Z,33.88
2023-02-23T23:38:02.749Z,33.65
2023-02-23T23:40:36.722Z,34.22
2023-02-23T23:43:08.625Z,35.38
2023-02-23T23:45:41.586Z,33.65
2023-02-23T23:48:10.665Z,33.53
2023-02-23T23:50:40.796Z,34.35
2023-02-23T23:53:09.738Z,33.15
2023-02-23T23:55:38.615Z,33.85
2023-02-23T23:58:08.080Z,35.67
